sensor_id;sensor_type;location;lat;lon;timestamp;temperature;humidity
27707;DHT22;36332;51.384;0.040;2023-10-13T00:02:01;16.70;99.90
27707;DHT22;36332;51.384;0.040;2023-10-13T00:04:31;16.80;99.90
27707;DHT22;36332;51.384;0.040;2023-10-13T00:07:10;16.70;99.90
27707;DHT22;36332;51.384;0.040;2023-10-13T00:12:08;16.70;99.90
27707;DHT22;36332;51.384;0.040;2023-10-13T00:14:41;16.70;99.90
27707;DHT22;36332;51.384;0.040;2023-10-13T00:17:09;16.70;99.90
27707;DHT22;36332;51.384;0.040;2023-10-13T00:19:43;16.50;99.90
27707;DHT22;36332;51.384;0.040;2023-10-13T00:22:20;16.60;99.90
27707;DHT22;36332;51.384;0.040;2023-10-13T00:24:50;16.60;99.90
27707;DHT22;36332;51.384;0.040;2023-10-13T00:27:19;16.60;99.90
27707;DHT22;36332;51.384;0.040;2023-10-13T00:30:05;16.60;99.90
27707;DHT22;36332;51.384;0.040;2023-10-13T00:32:52;16.60;99.90
27707;DHT22;36332;51.384;0.040;2023-10-13T00:35:25;16.60;99.90
27707;DHT22;36332;51.384;0.040;2023-10-13T00:38:10;16.60;99.90
27707;DHT22;36332;51.384;0.040;2023-10-13T00:40:40;16.60;99.90
27707;DHT22;36332;51.384;0.040;2023-10-13T00:43:10;16.60;99.90
27707;DHT22;36332;51.384;0.040;2023-10-13T00:45:58;16.60;99.90
27707;DHT22;36332;51.384;0.040;2023-10-13T00:48:32;16.60;99.90
27707;DHT22;36332;51.384;0.040;2023-10-13T00:51:06;16.60;99.90
27707;DHT22;36332;51.384;0.040;2023-10-13T00:53:36;16.60;99.90
27707;DHT22;36332;51.384;0.040;2023-10-13T00:56:12;16.60;99.90
27707;DHT22;36332;51.384;0.040;2023-10-13T00:58:55;16.60;99.90
27707;DHT22;36332;51.384;0.040;2023-10-13T01:01:26;16.60;99.90
27707;DHT22;36332;51.384;0.040;2023-10-13T01:04:00;16.50;99.90
27707;DHT22;36332;51.384;0.040;2023-10-13T01:06:31;16.60;99.90
27707;DHT22;36332;51.384;0.040;2023-10-13T01:09:16;16.60;99.90
27707;DHT22;36332;51.384;0.040;2023-10-13T01:11:45;16.60;99.90
27707;DHT22;36332;51.384;0.040;2023-10-13T01:14:14;16.70;99.90
27707;DHT22;36332;51.384;0.040;2023-10-13T01:16:46;16.70;99.90
27707;DHT22;36332;51.384;0.040;2023-10-13T01:19:15;16.70;99.90
27707;DHT22;36332;51.384;0.040;2023-10-13T01:21:53;16.70;99.90
27707;DHT22;36332;51.384;0.040;2023-10-13T01:24:30;16.80;99.90
27707;DHT22;36332;51.384;0.040;2023-10-13T01:27:06;16.80;99.90
27707;DHT22;36332;51.384;0.040;2023-10-13T01:29:48;16.90;99.90
27707;DHT22;36332;51.384;0.040;2023-10-13T01:32:18;16.90;99.90
27707;DHT22;36332;51.384;0.040;2023-10-13T01:34:46;16.80;99.90
27707;DHT22;36332;51.384;0.040;2023-10-13T01:37:16;16.80;99.90
27707;DHT22;36332;51.384;0.040;2023-10-13T01:39:44;16.70;99.90
27707;DHT22;36332;51.384;0.040;2023-10-13T01:42:16;16.70;99.90
27707;DHT22;36332;51.384;0.040;2023-10-13T01:44:53;16.70;99.90
27707;DHT22;36332;51.384;0.040;2023-10-13T01:50:00;16.50;99.90
27707;DHT22;36332;51.384;0.040;2023-10-13T01:52:34;16.50;99.90
27707;DHT22;36332;51.384;0.040;2023-10-13T01:55:01;16.50;99.90
27707;DHT22;36332;51.384;0.040;2023-10-13T01:57:29;16.40;99.90
27707;DHT22;36332;51.384;0.040;2023-10-13T01:59:56;16.30;99.90
27707;DHT22;36332;51.384;0.040;2023-10-13T02:02:24;16.40;99.90
27707;DHT22;36332;51.384;0.040;2023-10-13T02:04:58;16.30;99.90
27707;DHT22;36332;51.384;0.040;2023-10-13T02:07:31;16.30;99.90
27707;DHT22;36332;51.384;0.040;2023-10-13T02:12:33;16.20;99.90
27707;DHT22;36332;51.384;0.040;2023-10-13T02:15:13;16.20;99.90
27707;DHT22;36332;51.384;0.040;2023-10-13T02:17:48;16.20;99.90
27707;DHT22;36332;51.384;0.040;2023-10-13T02:20:19;16.20;99.90
27707;DHT22;36332;51.384;0.040;2023-10-13T02:22:50;16.20;99.90
27707;DHT22;36332;51.384;0.040;2023-10-13T02:25:19;16.20;99.90
27707;DHT22;36332;51.384;0.040;2023-10-13T02:28:04;16.20;99.90
27707;DHT22;36332;51.384;0.040;2023-10-13T02:30:43;16.10;99.90
27707;DHT22;36332;51.384;0.040;2023-10-13T02:33:16;16.20;99.90
27707;DHT22;36332;51.384;0.040;2023-10-13T02:35:57;16.20;99.90
27707;DHT22;36332;51.384;0.040;2023-10-13T02:38:25;16.20;99.90
27707;DHT22;36332;51.384;0.040;2023-10-13T02:41:17;16.10;99.90
27707;DHT22;36332;51.384;0.040;2023-10-13T02:44:08;16.20;99.90
27707;DHT22;36332;51.384;0.040;2023-10-13T02:46:37;16.10;99.90
27707;DHT22;36332;51.384;0.040;2023-10-13T02:49:07;16.20;99.90
27707;DHT22;36332;51.384;0.040;2023-10-13T02:51:39;16.10;99.90
27707;DHT22;36332;51.384;0.040;2023-10-13T02:54:10;16.20;99.90
27707;DHT22;36332;51.384;0.040;2023-10-13T02:56:39;12.80;99.90
27707;DHT22;36332;51.384;0.040;2023-10-13T02:59:36;16.20;99.90
27707;DHT22;36332;51.384;0.040;2023-10-13T03:02:22;16.30;99.90
27707;DHT22;36332;51.384;0.040;2023-10-13T03:04:58;16.30;99.90
27707;DHT22;36332;51.384;0.040;2023-10-13T03:07:36;16.30;99.90
27707;DHT22;36332;51.384;0.040;2023-10-13T03:10:05;16.30;99.90
27707;DHT22;36332;51.384;0.040;2023-10-13T03:12:40;16.40;99.90
27707;DHT22;36332;51.384;0.040;2023-10-13T03:17:45;16.40;99.90
27707;DHT22;36332;51.384;0.040;2023-10-13T03:20:13;16.50;99.90
27707;DHT22;36332;51.384;0.040;2023-10-13T03:22:52;16.50;99.90
27707;DHT22;36332;51.384;0.040;2023-10-13T03:25:20;16.50;99.90
27707;DHT22;36332;51.384;0.040;2023-10-13T03:27:58;16.50;99.90
27707;DHT22;36332;51.384;0.040;2023-10-13T03:30:28;16.60;99.90
27707;DHT22;36332;51.384;0.040;2023-10-13T03:33:07;16.60;99.90
27707;DHT22;36332;51.384;0.040;2023-10-13T03:35:39;16.60;99.90
27707;DHT22;36332;51.384;0.040;2023-10-13T03:38:10;16.70;99.90
27707;DHT22;36332;51.384;0.040;2023-10-13T03:40:49;16.70;99.90
27707;DHT22;36332;51.384;0.040;2023-10-13T03:43:23;16.70;99.90
27707;DHT22;36332;51.384;0.040;2023-10-13T03:45:51;16.70;99.90
27707;DHT22;36332;51.384;0.040;2023-10-13T03:48:29;16.80;99.90
27707;DHT22;36332;51.384;0.040;2023-10-13T03:50:59;16.80;99.90
27707;DHT22;36332;51.384;0.040;2023-10-13T03:53:42;16.80;99.90
27707;DHT22;36332;51.384;0.040;2023-10-13T03:56:29;16.90;99.90
27707;DHT22;36332;51.384;0.040;2023-10-13T03:59:07;16.80;99.90
27707;DHT22;36332;51.384;0.040;2023-10-13T04:01:37;16.90;99.90
27707;DHT22;36332;51.384;0.040;2023-10-13T04:04:15;14.60;99.90
27707;DHT22;36332;51.384;0.040;2023-10-13T04:06:57;17.00;99.90
27707;DHT22;36332;51.384;0.040;2023-10-13T04:09:30;17.00;99.90
27707;DHT22;36332;51.384;0.040;2023-10-13T04:14:41;17.00;99.90
27707;DHT22;36332;51.384;0.040;2023-10-13T04:17:28;17.10;99.90
27707;DHT22;36332;51.384;0.040;2023-10-13T04:19:58;17.10;99.90
27707;DHT22;36332;51.384;0.040;2023-10-13T04:22:33;17.10;99.90
27707;DHT22;36332;51.384;0.040;2023-10-13T04:25:22;17.10;99.90
27707;DHT22;36332;51.384;0.040;2023-10-13T04:28:03;17.20;99.90
27707;DHT22;36332;51.384;0.040;2023-10-13T04:30:51;17.20;99.90
27707;DHT22;36332;51.384;0.040;2023-10-13T04:33:29;17.30;99.90
27707;DHT22;36332;51.384;0.040;2023-10-13T04:36:11;17.20;99.90
27707;DHT22;36332;51.384;0.040;2023-10-13T04:38:55;18.60;99.90
27707;DHT22;36332;51.384;0.040;2023-10-13T04:41:37;17.40;99.90
27707;DHT22;36332;51.384;0.040;2023-10-13T04:44:17;17.40;99.90
27707;DHT22;36332;51.384;0.040;2023-10-13T04:46:58;17.50;99.90
27707;DHT22;36332;51.384;0.040;2023-10-13T04:49:27;17.50;99.90
27707;DHT22;36332;51.384;0.040;2023-10-13T04:51:57;17.60;99.90
27707;DHT22;36332;51.384;0.040;2023-10-13T04:54:45;17.60;99.90
27707;DHT22;36332;51.384;0.040;2023-10-13T04:57:24;17.70;99.90
27707;DHT22;36332;51.384;0.040;2023-10-13T05:00:10;17.70;99.90
27707;DHT22;36332;51.384;0.040;2023-10-13T05:02:41;17.70;99.90
27707;DHT22;36332;51.384;0.040;2023-10-13T05:05:13;17.80;99.90
27707;DHT22;36332;51.384;0.040;2023-10-13T05:07:42;17.70;99.90
27707;DHT22;36332;51.384;0.040;2023-10-13T05:10:32;17.80;99.90
27707;DHT22;36332;51.384;0.040;2023-10-13T05:16:05;17.80;99.90
27707;DHT22;36332;51.384;0.040;2023-10-13T05:18:52;17.90;99.90
27707;DHT22;36332;51.384;0.040;2023-10-13T05:21:38;17.90;99.90
27707;DHT22;36332;51.384;0.040;2023-10-13T05:24:24;17.90;99.90
27707;DHT22;36332;51.384;0.040;2023-10-13T05:27:10;17.90;99.90
27707;DHT22;36332;51.384;0.040;2023-10-13T05:29:56;18.00;99.90
27707;DHT22;36332;51.384;0.040;2023-10-13T05:32:43;18.00;99.90
27707;DHT22;36332;51.384;0.040;2023-10-13T05:35:31;18.10;99.90
27707;DHT22;36332;51.384;0.040;2023-10-13T05:38:17;18.10;99.90
27707;DHT22;36332;51.384;0.040;2023-10-13T05:41:05;18.10;99.90
27707;DHT22;36332;51.384;0.040;2023-10-13T05:43:52;18.10;99.90
27707;DHT22;36332;51.384;0.040;2023-10-13T05:46:39;18.10;99.90
27707;DHT22;36332;51.384;0.040;2023-10-13T05:49:08;18.20;99.90
27707;DHT22;36332;51.384;0.040;2023-10-13T05:51:36;18.20;99.90
27707;DHT22;36332;51.384;0.040;2023-10-13T05:54:04;18.20;99.90
27707;DHT22;36332;51.384;0.040;2023-10-13T05:56:45;18.20;99.90
27707;DHT22;36332;51.384;0.040;2023-10-13T05:59:33;18.30;99.90
27707;DHT22;36332;51.384;0.040;2023-10-13T06:02:20;18.30;99.90
27707;DHT22;36332;51.384;0.040;2023-10-13T06:05:11;18.40;99.90
27707;DHT22;36332;51.384;0.040;2023-10-13T06:07:58;18.30;99.90
27707;DHT22;36332;51.384;0.040;2023-10-13T06:10:45;18.40;99.90
27707;DHT22;36332;51.384;0.040;2023-10-13T06:13:31;18.40;99.90
27707;DHT22;36332;51.384;0.040;2023-10-13T06:16:17;18.50;99.90
27707;DHT22;36332;51.384;0.040;2023-10-13T06:19:04;18.50;99.90
27707;DHT22;36332;51.384;0.040;2023-10-13T06:21:51;18.50;99.90
27707;DHT22;36332;51.384;0.040;2023-10-13T06:24:37;18.50;99.90
27707;DHT22;36332;51.384;0.040;2023-10-13T06:27:24;18.60;99.90
27707;DHT22;36332;51.384;0.040;2023-10-13T06:30:10;18.60;99.90
27707;DHT22;36332;51.384;0.040;2023-10-13T06:32:39;18.60;99.90
27707;DHT22;36332;51.384;0.040;2023-10-13T06:35:08;18.60;99.90
27707;DHT22;36332;51.384;0.040;2023-10-13T06:37:36;18.60;99.90
27707;DHT22;36332;51.384;0.040;2023-10-13T06:40:10;18.70;99.90
27707;DHT22;36332;51.384;0.040;2023-10-13T06:42:54;18.70;99.90
27707;DHT22;36332;51.384;0.040;2023-10-13T06:45:41;18.90;99.90
27707;DHT22;36332;51.384;0.040;2023-10-13T06:48:09;18.80;99.90
27707;DHT22;36332;51.384;0.040;2023-10-13T06:50:39;18.90;99.90
27707;DHT22;36332;51.384;0.040;2023-10-13T06:53:09;19.00;99.90
27707;DHT22;36332;51.384;0.040;2023-10-13T06:55:40;19.00;99.90
27707;DHT22;36332;51.384;0.040;2023-10-13T06:58:07;19.10;99.90
27707;DHT22;36332;51.384;0.040;2023-10-13T07:00:41;19.20;99.90
27707;DHT22;36332;51.384;0.040;2023-10-13T07:03:20;19.20;99.90
27707;DHT22;36332;51.384;0.040;2023-10-13T07:05:48;19.30;99.90
27707;DHT22;36332;51.384;0.040;2023-10-13T07:08:16;19.30;99.90
27707;DHT22;36332;51.384;0.040;2023-10-13T07:10:53;19.30;99.90
27707;DHT22;36332;51.384;0.040;2023-10-13T07:13:32;19.40;99.90
27707;DHT22;36332;51.384;0.040;2023-10-13T07:16:06;19.40;99.90
27707;DHT22;36332;51.384;0.040;2023-10-13T07:18:55;19.30;99.90
27707;DHT22;36332;51.384;0.040;2023-10-13T07:21:22;19.30;99.90
27707;DHT22;36332;51.384;0.040;2023-10-13T07:23:59;19.30;99.90
27707;DHT22;36332;51.384;0.040;2023-10-13T07:26:36;19.30;99.90
27707;DHT22;36332;51.384;0.040;2023-10-13T07:29:11;19.30;99.90
27707;DHT22;36332;51.384;0.040;2023-10-13T07:31:39;19.20;99.90
27707;DHT22;36332;51.384;0.040;2023-10-13T07:34:09;19.30;99.90
27707;DHT22;36332;51.384;0.040;2023-10-13T07:36:54;19.30;99.90
27707;DHT22;36332;51.384;0.040;2023-10-13T07:39:29;18.80;99.90
27707;DHT22;36332;51.384;0.040;2023-10-13T07:42:02;19.40;99.90
27707;DHT22;36332;51.384;0.040;2023-10-13T07:44:47;19.50;99.90
27707;DHT22;36332;51.384;0.040;2023-10-13T07:47:14;19.50;99.90
27707;DHT22;36332;51.384;0.040;2023-10-13T07:49:43;19.50;99.90
27707;DHT22;36332;51.384;0.040;2023-10-13T07:52:11;19.60;99.90
27707;DHT22;36332;51.384;0.040;2023-10-13T07:54:50;19.60;99.90
27707;DHT22;36332;51.384;0.040;2023-10-13T07:57:40;19.70;99.90
27707;DHT22;36332;51.384;0.040;2023-10-13T08:00:24;19.70;99.90
27707;DHT22;36332;51.384;0.040;2023-10-13T08:03:11;19.70;99.90
27707;DHT22;36332;51.384;0.040;2023-10-13T08:05:52;19.80;99.90
27707;DHT22;36332;51.384;0.040;2023-10-13T08:08:35;19.90;99.90
27707;DHT22;36332;51.384;0.040;2023-10-13T08:13:39;19.90;99.90
27707;DHT22;36332;51.384;0.040;2023-10-13T08:16:30;19.90;99.90
27707;DHT22;36332;51.384;0.040;2023-10-13T08:19:15;19.70;99.90
27707;DHT22;36332;51.384;0.040;2023-10-13T08:21:47;19.60;99.90
27707;DHT22;36332;51.384;0.040;2023-10-13T08:24:28;19.40;99.90
27707;DHT22;36332;51.384;0.040;2023-10-13T08:27:07;19.20;99.90
27707;DHT22;36332;51.384;0.040;2023-10-13T08:34:57;18.50;99.90
27707;DHT22;36332;51.384;0.040;2023-10-13T08:37:26;18.40;99.90
27707;DHT22;36332;51.384;0.040;2023-10-13T08:39:56;18.30;99.90
27707;DHT22;36332;51.384;0.040;2023-10-13T08:42:51;18.20;99.90
27707;DHT22;36332;51.384;0.040;2023-10-13T08:45:38;18.20;99.90
27707;DHT22;36332;51.384;0.040;2023-10-13T08:48:07;18.10;99.90
27707;DHT22;36332;51.384;0.040;2023-10-13T08:50:45;18.00;99.90
27707;DHT22;36332;51.384;0.040;2023-10-13T08:53:26;18.00;99.90
27707;DHT22;36332;51.384;0.040;2023-10-13T08:56:00;17.90;99.90
27707;DHT22;36332;51.384;0.040;2023-10-13T09:01:36;18.00;99.90
27707;DHT22;36332;51.384;0.040;2023-10-13T09:04:20;17.90;99.90
27707;DHT22;36332;51.384;0.040;2023-10-13T09:07:03;17.90;99.90
27707;DHT22;36332;51.384;0.040;2023-10-13T09:09:47;17.90;99.90
27707;DHT22;36332;51.384;0.040;2023-10-13T09:12:15;17.90;99.90
27707;DHT22;36332;51.384;0.040;2023-10-13T09:14:54;17.90;99.90
27707;DHT22;36332;51.384;0.040;2023-10-13T09:17:26;17.90;99.90
27707;DHT22;36332;51.384;0.040;2023-10-13T09:20:08;17.90;99.90
27707;DHT22;36332;51.384;0.040;2023-10-13T09:23:08;17.80;99.90
27707;DHT22;36332;51.384;0.040;2023-10-13T09:25:38;17.80;99.90
27707;DHT22;36332;51.384;0.040;2023-10-13T09:28:16;17.90;99.90
27707;DHT22;36332;51.384;0.040;2023-10-13T09:30:49;17.90;99.90
27707;DHT22;36332;51.384;0.040;2023-10-13T09:33:28;17.90;99.90
27707;DHT22;36332;51.384;0.040;2023-10-13T09:38:36;18.00;99.90
27707;DHT22;36332;51.384;0.040;2023-10-13T09:41:04;18.10;99.90
27707;DHT22;36332;51.384;0.040;2023-10-13T09:43:51;18.10;99.90
27707;DHT22;36332;51.384;0.040;2023-10-13T09:46:20;18.00;99.90
27707;DHT22;36332;51.384;0.040;2023-10-13T09:48:55;18.20;99.90
27707;DHT22;36332;51.384;0.040;2023-10-13T09:54:26;18.10;99.90
27707;DHT22;36332;51.384;0.040;2023-10-13T09:57:14;18.10;99.90
27707;DHT22;36332;51.384;0.040;2023-10-13T10:00:02;18.00;99.90
27707;DHT22;36332;51.384;0.040;2023-10-13T10:07:56;18.00;99.90
27707;DHT22;36332;51.384;0.040;2023-10-13T10:10:56;18.00;99.90
27707;DHT22;36332;51.384;0.040;2023-10-13T10:13:37;17.90;99.90
27707;DHT22;36332;51.384;0.040;2023-10-13T10:16:11;17.90;99.90
27707;DHT22;36332;51.384;0.040;2023-10-13T10:23:52;18.00;99.90
27707;DHT22;36332;51.384;0.040;2023-10-13T10:28:49;17.90;99.90
27707;DHT22;36332;51.384;0.040;2023-10-13T10:36:38;18.20;99.90
27707;DHT22;36332;51.384;0.040;2023-10-13T10:47:15;18.20;99.90
27707;DHT22;36332;51.384;0.040;2023-10-13T10:52:34;18.20;99.90
27707;DHT22;36332;51.384;0.040;2023-10-13T10:55:07;18.20;99.90
27707;DHT22;36332;51.384;0.040;2023-10-13T11:00:19;18.30;99.90
27707;DHT22;36332;51.384;0.040;2023-10-13T11:02:57;18.30;99.90
27707;DHT22;36332;51.384;0.040;2023-10-13T11:10:29;18.50;99.90
27707;DHT22;36332;51.384;0.040;2023-10-13T11:13:00;18.50;99.90
27707;DHT22;36332;51.384;0.040;2023-10-13T11:15:44;18.70;99.90
27707;DHT22;36332;51.384;0.040;2023-10-13T11:18:13;18.80;99.90
27707;DHT22;36332;51.384;0.040;2023-10-13T11:25:59;19.30;99.90
27707;DHT22;36332;51.384;0.040;2023-10-13T11:30:56;19.50;99.90
27707;DHT22;36332;51.384;0.040;2023-10-13T11:35:57;19.60;99.90
27707;DHT22;36332;51.384;0.040;2023-10-13T11:38:30;19.80;99.90
27707;DHT22;36332;51.384;0.040;2023-10-13T11:43:51;20.30;99.90
27707;DHT22;36332;51.384;0.040;2023-10-13T11:46:39;20.60;99.90
27707;DHT22;36332;51.384;0.040;2023-10-13T12:02:12;20.90;99.90
27707;DHT22;36332;51.384;0.040;2023-10-13T12:10:12;21.20;99.90
27707;DHT22;36332;51.384;0.040;2023-10-13T12:15:33;21.10;99.90
27707;DHT22;36332;51.384;0.040;2023-10-13T12:23:13;20.90;99.90
27707;DHT22;36332;51.384;0.040;2023-10-13T12:28:23;20.80;99.90
27707;DHT22;36332;51.384;0.040;2023-10-13T12:35:59;21.00;99.90
27707;DHT22;36332;51.384;0.040;2023-10-13T12:41:14;21.70;99.90
27707;DHT22;36332;51.384;0.040;2023-10-13T12:49:37;22.10;99.90
27707;DHT22;36332;51.384;0.040;2023-10-13T12:57:28;21.70;99.90
27707;DHT22;36332;51.384;0.040;2023-10-13T13:02:25;21.40;99.90
27707;DHT22;36332;51.384;0.040;2023-10-13T13:07:25;21.30;99.90
27707;DHT22;36332;51.384;0.040;2023-10-13T13:40:05;22.30;99.90
27707;DHT22;36332;51.384;0.040;2023-10-13T13:45:18;23.10;99.90
27707;DHT22;36332;51.384;0.040;2023-10-13T13:47:50;23.20;99.90
27707;DHT22;36332;51.384;0.040;2023-10-13T13:50:25;23.10;99.90
27707;DHT22;36332;51.384;0.040;2023-10-13T13:52:58;22.90;99.90
27707;DHT22;36332;51.384;0.040;2023-10-13T13:55:27;22.60;99.90
27707;DHT22;36332;51.384;0.040;2023-10-13T14:03:06;22.10;99.90
27707;DHT22;36332;51.384;0.040;2023-10-13T14:05:44;21.90;99.90
27707;DHT22;36332;51.384;0.040;2023-10-13T14:13:30;21.90;99.90
27707;DHT22;36332;51.384;0.040;2023-10-13T14:16:17;21.80;99.90
27707;DHT22;36332;51.384;0.040;2023-10-13T14:18:46;21.70;99.90
27707;DHT22;36332;51.384;0.040;2023-10-13T14:23:47;21.50;99.90
27707;DHT22;36332;51.384;0.040;2023-10-13T14:26:18;21.30;99.90
27707;DHT22;36332;51.384;0.040;2023-10-13T14:31:31;21.00;99.90
27707;DHT22;36332;51.384;0.040;2023-10-13T14:43:52;20.60;99.90
27707;DHT22;36332;51.384;0.040;2023-10-13T14:48:54;20.90;99.90
27707;DHT22;36332;51.384;0.040;2023-10-13T15:01:23;24.10;99.90
27707;DHT22;36332;51.384;0.040;2023-10-13T15:03:54;24.60;99.90
27707;DHT22;36332;51.384;0.040;2023-10-13T15:06:27;24.90;99.90
27707;DHT22;36332;51.384;0.040;2023-10-13T15:08:59;25.20;99.90
27707;DHT22;36332;51.384;0.040;2023-10-13T15:11:27;25.20;99.90
27707;DHT22;36332;51.384;0.040;2023-10-13T15:16:44;24.60;99.90
27707;DHT22;36332;51.384;0.040;2023-10-13T15:19:12;24.40;99.90
27707;DHT22;36332;51.384;0.040;2023-10-13T15:21:40;24.30;99.90
27707;DHT22;36332;51.384;0.040;2023-10-13T15:24:08;23.90;99.90
27707;DHT22;36332;51.384;0.040;2023-10-13T15:26:45;23.70;99.90
27707;DHT22;36332;51.384;0.040;2023-10-13T15:29:16;23.50;99.90
27707;DHT22;36332;51.384;0.040;2023-10-13T15:31:45;23.50;99.90
27707;DHT22;36332;51.384;0.040;2023-10-13T15:34:28;23.90;99.90
27707;DHT22;36332;51.384;0.040;2023-10-13T15:36:57;24.20;99.90
27707;DHT22;36332;51.384;0.040;2023-10-13T15:39:25;24.20;99.90
27707;DHT22;36332;51.384;0.040;2023-10-13T15:41:56;23.90;99.90
27707;DHT22;36332;51.384;0.040;2023-10-13T15:44:27;23.90;99.90
27707;DHT22;36332;51.384;0.040;2023-10-13T15:46:58;23.70;99.90
27707;DHT22;36332;51.384;0.040;2023-10-13T15:49:32;23.40;99.90
27707;DHT22;36332;51.384;0.040;2023-10-13T15:52:01;23.20;99.90
27707;DHT22;36332;51.384;0.040;2023-10-13T15:57:02;22.80;99.90
27707;DHT22;36332;51.384;0.040;2023-10-13T16:44:23;19.50;99.90
27707;DHT22;36332;51.384;0.040;2023-10-13T17:31:37;17.80;99.90
27707;DHT22;36332;51.384;0.040;2023-10-13T17:53:54;17.30;99.90
27707;DHT22;36332;51.384;0.040;2023-10-13T17:58:52;17.20;99.90
27707;DHT22;36332;51.384;0.040;2023-10-13T18:03:51;17.30;99.90
27707;DHT22;36332;51.384;0.040;2023-10-13T18:06:23;17.30;99.90
27707;DHT22;36332;51.384;0.040;2023-10-13T18:08:52;17.20;99.90
27707;DHT22;36332;51.384;0.040;2023-10-13T18:16:21;17.20;99.90
27707;DHT22;36332;51.384;0.040;2023-10-13T18:23:53;17.10;99.90
27707;DHT22;36332;51.384;0.040;2023-10-13T18:28:51;17.10;99.90
27707;DHT22;36332;51.384;0.040;2023-10-13T18:36:26;15.70;99.90
27707;DHT22;36332;51.384;0.040;2023-10-13T18:38:57;15.90;99.90
27707;DHT22;36332;51.384;0.040;2023-10-13T18:46:27;15.20;99.90
27707;DHT22;36332;51.384;0.040;2023-10-13T18:58:53;14.30;99.90
27707;DHT22;36332;51.384;0.040;2023-10-13T19:01:25;14.10;99.90
27707;DHT22;36332;51.384;0.040;2023-10-13T19:03:58;14.00;99.90
27707;DHT22;36332;51.384;0.040;2023-10-13T19:06:29;13.90;99.90
27707;DHT22;36332;51.384;0.040;2023-10-13T19:08:59;13.80;99.90
27707;DHT22;36332;51.384;0.040;2023-10-13T19:14:04;13.70;99.90
27707;DHT22;36332;51.384;0.040;2023-10-13T19:16:40;13.60;99.90
27707;DHT22;36332;51.384;0.040;2023-10-13T19:24:05;13.40;99.90
27707;DHT22;36332;51.384;0.040;2023-10-13T19:26:34;13.40;99.90
27707;DHT22;36332;51.384;0.040;2023-10-13T19:39:03;13.40;99.90
27707;DHT22;36332;51.384;0.040;2023-10-13T19:46:33;13.40;99.90
27707;DHT22;36332;51.384;0.040;2023-10-13T19:51:33;13.30;99.90
27707;DHT22;36332;51.384;0.040;2023-10-13T19:54:02;13.20;99.90
27707;DHT22;36332;51.384;0.040;2023-10-13T20:06:35;12.90;99.90
27707;DHT22;36332;51.384;0.040;2023-10-13T20:19:00;12.80;99.90
27707;DHT22;36332;51.384;0.040;2023-10-13T20:21:30;12.80;99.90
27707;DHT22;36332;51.384;0.040;2023-10-13T20:24:00;12.70;99.90
27707;DHT22;36332;51.384;0.040;2023-10-13T20:26:29;12.70;99.90
27707;DHT22;36332;51.384;0.040;2023-10-13T20:31:25;12.70;99.90
27707;DHT22;36332;51.384;0.040;2023-10-13T20:36:25;12.70;99.90
27707;DHT22;36332;51.384;0.040;2023-10-13T20:38:54;12.70;99.90
27707;DHT22;36332;51.384;0.040;2023-10-13T20:43:51;12.70;99.90
27707;DHT22;36332;51.384;0.040;2023-10-13T20:53:44;12.70;99.90
27707;DHT22;36332;51.384;0.040;2023-10-13T20:58:43;12.50;99.90
27707;DHT22;36332;51.384;0.040;2023-10-13T21:03:42;12.30;99.90
27707;DHT22;36332;51.384;0.040;2023-10-13T21:08:40;12.30;99.90
27707;DHT22;36332;51.384;0.040;2023-10-13T21:16:10;12.00;99.90
27707;DHT22;36332;51.384;0.040;2023-10-13T21:18:39;11.90;99.90
27707;DHT22;36332;51.384;0.040;2023-10-13T21:21:18;11.90;99.90
27707;DHT22;36332;51.384;0.040;2023-10-13T21:26:24;11.70;99.90
27707;DHT22;36332;51.384;0.040;2023-10-13T21:33:54;11.60;99.90
27707;DHT22;36332;51.384;0.040;2023-10-13T21:36:23;11.60;99.90
27707;DHT22;36332;51.384;0.040;2023-10-13T21:41:22;11.50;99.90
27707;DHT22;36332;51.384;0.040;2023-10-13T21:43:52;11.40;99.90
27707;DHT22;36332;51.384;0.040;2023-10-13T21:48:55;11.40;99.90
27707;DHT22;36332;51.384;0.040;2023-10-13T21:51:33;11.40;99.90
27707;DHT22;36332;51.384;0.040;2023-10-13T22:03:57;11.20;99.90
27707;DHT22;36332;51.384;0.040;2023-10-13T22:06:39;11.10;99.90
27707;DHT22;36332;51.384;0.040;2023-10-13T22:09:08;11.10;99.90
27707;DHT22;36332;51.384;0.040;2023-10-13T22:11:38;11.10;99.90
27707;DHT22;36332;51.384;0.040;2023-10-13T22:14:08;11.00;99.90
27707;DHT22;36332;51.384;0.040;2023-10-13T22:38:53;10.70;99.90
27707;DHT22;36332;51.384;0.040;2023-10-13T22:41:23;10.70;99.90
27707;DHT22;36332;51.384;0.040;2023-10-13T22:43:51;10.60;99.90
27707;DHT22;36332;51.384;0.040;2023-10-13T22:51:16;10.60;99.90
27707;DHT22;36332;51.384;0.040;2023-10-13T22:53:44;10.50;99.90
27707;DHT22;36332;51.384;0.040;2023-10-13T22:58:46;10.40;99.90
27707;DHT22;36332;51.384;0.040;2023-10-13T23:03:46;10.40;99.90
27707;DHT22;36332;51.384;0.040;2023-10-13T23:14:15;10.40;99.90
27707;DHT22;36332;51.384;0.040;2023-10-13T23:41:38;10.20;99.90
27707;DHT22;36332;51.384;0.040;2023-10-13T23:46:42;10.10;99.90
27707;DHT22;36332;51.384;0.040;2023-10-13T23:49:14;10.10;99.90
27707;DHT22;36332;51.384;0.040;2023-10-13T23:56:46;10.00;99.90
